createdAt,value
2019-03-11T00:04:49.090Z,99849.37
2019-03-11T00:09:56.197Z,99863.82
2019-03-11T00:15:03.186Z,99884.45
2019-03-11T00:20:10.476Z,99878.39
2019-03-11T00:25:17.486Z,99878.84
2019-03-11T00:30:24.473Z,99870.39
2019-03-11T00:35:31.380Z,99872.79
2019-03-11T00:40:38.318Z,99872.79
2019-03-11T00:45:45.304Z,99872.91
2019-03-11T00:50:52.222Z,99862.95
2019-03-11T00:55:59.317Z,99876.37
2019-03-11T01:01:06.434Z,99883.20
2019-03-11T01:06:13.364Z,99877.06
2019-03-11T01:11:20.295Z,99876.52
2019-03-11T01:16:39.302Z,99877.38
2019-03-11T01:21:46.277Z,99874.46
2019-03-11T01:26:53.242Z,99878.00
2019-03-11T01:32:00.161Z,99906.11
2019-03-11T01:37:07.235Z,99906.11
2019-03-11T01:42:14.177Z,99885.34
2019-03-11T01:47:21.167Z,99888.75
2019-03-11T01:52:28.097Z,99883.06
2019-03-11T01:57:35.124Z,99886.06
2019-03-11T02:02:42.122Z,99869.59
2019-03-11T02:07:49.026Z,99869.59
2019-03-11T02:12:55.954Z,99888.67
2019-03-11T02:18:02.886Z,99878.84
2019-03-11T02:23:09.929Z,99880.33
2019-03-11T02:28:17.282Z,99892.47
2019-03-11T02:33:24.282Z,99879.52
2019-03-11T02:38:31.278Z,99894.81
2019-03-11T02:43:38.203Z,99891.42
2019-03-11T02:48:45.121Z,99873.10
2019-03-11T02:53:52.227Z,99870.74
2019-03-11T02:59:00.800Z,99875.12
2019-03-11T03:04:12.502Z,99874.55
2019-03-11T03:09:20.397Z,99879.05
2019-03-11T03:14:27.346Z,99886.61
2019-03-11T03:19:34.262Z,99879.05
2019-03-11T03:24:41.234Z,99890.61
2019-03-11T03:29:48.177Z,99871.22
2019-03-11T03:34:55.142Z,99872.01
2019-03-11T03:40:02.007Z,99861.14
2019-03-11T03:45:26.760Z,99870.98
2019-03-11T03:50:35.925Z,99850.19
2019-03-11T03:55:42.825Z,99852.27
2019-03-11T04:00:49.959Z,99839.23
2019-03-11T04:05:57.013Z,99841.08
2019-03-11T04:11:04.335Z,99850.01
2019-03-11T04:16:11.343Z,99842.08
2019-03-11T04:21:18.649Z,99827.48
2019-03-11T04:26:30.377Z,99812.16
2019-03-11T04:31:37.386Z,99818.47
2019-03-11T04:36:44.478Z,99807.61
2019-03-11T04:41:51.415Z,99803.60
2019-03-11T04:46:58.352Z,99798.73
2019-03-11T04:52:05.355Z,99787.09
2019-03-11T04:57:13.410Z,99787.34
2019-03-11T05:02:20.495Z,99785.81
2019-03-11T05:07:27.497Z,99815.83
2019-03-11T05:12:34.529Z,99788.95
2019-03-11T05:17:41.799Z,99793.14
2019-03-11T05:22:48.729Z,99794.74
2019-03-11T05:27:55.665Z,99792.55
2019-03-11T05:33:02.619Z,99781.83
2019-03-11T05:38:09.530Z,99781.83
2019-03-11T05:43:20.670Z,99774.28
2019-03-11T05:48:27.599Z,99774.28
2019-03-11T05:53:34.523Z,99783.87
2019-03-11T05:58:41.453Z,99781.86
2019-03-11T06:03:48.381Z,99777.62
2019-03-11T06:08:55.586Z,99792.06
2019-03-11T06:14:02.511Z,99850.86
2019-03-11T06:19:09.462Z,99850.86
2019-03-11T06:24:16.367Z,99834.63
2019-03-11T06:29:30.536Z,99829.64
2019-03-11T06:34:32.081Z,99830.14
2019-03-11T06:39:39.991Z,99827.81
2019-03-11T06:44:46.900Z,99811.36
2019-03-11T06:49:53.832Z,99808.52
2019-03-11T06:55:00.744Z,99821.35
2019-03-11T07:00:09.774Z,99811.91
2019-03-11T07:05:20.664Z,99822.84
2019-03-11T07:10:25.330Z,99835.37
2019-03-11T07:15:32.275Z,99830.55
2019-03-11T07:20:39.329Z,99820.33
2019-03-11T07:25:47.443Z,99826.29
2019-03-11T07:30:54.424Z,99848.23
2019-03-11T07:36:01.551Z,99848.14
2019-03-11T07:41:08.546Z,99848.77
2019-03-11T07:46:15.492Z,99839.20
2019-03-11T07:51:22.415Z,99851.77
2019-03-11T07:56:29.363Z,99857.23
2019-03-11T08:01:36.562Z,99849.48
2019-03-11T08:06:43.501Z,99863.02
2019-03-11T08:11:50.421Z,99857.44
2019-03-11T08:16:57.362Z,99865.06
2019-03-11T08:22:04.441Z,99872.20
2019-03-11T08:27:11.383Z,99865.93
2019-03-11T08:32:18.325Z,99882.41
2019-03-11T08:37:25.537Z,99875.64
2019-03-11T08:42:32.444Z,99875.64
2019-03-11T08:47:39.566Z,99879.93
2019-03-11T08:52:46.583Z,99889.80
2019-03-11T08:57:53.699Z,99876.12
2019-03-11T09:03:00.643Z,99885.93
2019-03-11T09:08:07.564Z,99877.05
2019-03-11T09:13:15.770Z,99889.41
2019-03-11T09:18:23.784Z,99886.34
2019-03-11T09:23:30.750Z,99891.12
2019-03-11T09:28:37.698Z,99901.76
2019-03-11T09:33:44.698Z,99891.06
2019-03-11T09:38:51.614Z,99893.84
2019-03-11T09:43:58.571Z,99886.89
2019-03-11T09:49:05.571Z,99908.16
2019-03-11T09:54:12.498Z,99905.20
2019-03-11T09:59:19.442Z,99914.09
2019-03-11T10:04:26.990Z,99914.01
2019-03-11T10:09:33.914Z,99906.07
2019-03-11T10:14:40.845Z,99903.63
2019-03-11T10:19:47.816Z,99909.42
2019-03-11T10:24:54.830Z,99966.11
2019-03-11T10:30:03.102Z,99920.94
2019-03-11T10:35:30.246Z,99939.86
2019-03-11T10:40:21.278Z,99923.09
2019-03-11T10:45:31.731Z,99924.30
2019-03-11T10:50:37.062Z,99948.45
2019-03-11T10:55:44.051Z,99940.98
2019-03-11T11:00:52.148Z,99935.66
2019-03-11T11:05:59.199Z,99925.59
2019-03-11T11:11:06.170Z,99936.50
2019-03-11T11:16:13.314Z,99934.05
2019-03-11T11:21:20.255Z,99944.66
2019-03-11T11:26:27.181Z,99941.75
2019-03-11T11:31:34.577Z,99966.95
2019-03-11T11:36:41.598Z,99980.61
2019-03-11T11:41:48.490Z,99955.86
2019-03-11T11:46:55.508Z,99982.94
2019-03-11T11:52:02.693Z,99930.86
2019-03-11T11:57:10.578Z,99947.22
2019-03-11T12:02:17.598Z,99949.61
2019-03-11T12:07:24.566Z,100009.38
2019-03-11T12:12:31.510Z,99965.20
2019-03-11T12:17:38.598Z,99961.70
2019-03-11T12:22:45.693Z,99961.87
2019-03-11T12:27:54.460Z,99966.27
2019-03-11T12:33:01.612Z,99974.55
2019-03-11T12:38:09.669Z,99962.69
2019-03-11T12:43:16.658Z,99986.52
2019-03-11T12:48:23.586Z,99957.25
2019-03-11T12:53:30.534Z,99970.66
2019-03-11T12:58:41.528Z,99987.70
2019-03-11T13:03:46.186Z,99975.45
2019-03-11T13:08:53.109Z,99978.00
2019-03-11T13:14:00.018Z,99978.33
2019-03-11T13:19:13.154Z,99997.42
2019-03-11T13:24:16.565Z,100003.16
2019-03-11T13:29:23.493Z,100001.70
2019-03-11T13:34:30.662Z,99987.05
2019-03-11T13:39:37.671Z,100020.55
2019-03-11T13:44:44.693Z,100035.92
2019-03-11T13:49:51.628Z,100011.71
2019-03-11T13:55:06.320Z,100040.17
2019-03-11T14:00:08.448Z,100039.20
2019-03-11T14:05:16.238Z,100031.62
2019-03-11T14:10:35.754Z,100031.17
2019-03-11T14:15:42.767Z,100074.02
2019-03-11T14:20:49.851Z,100047.34
2019-03-11T14:25:56.950Z,100061.61
2019-03-11T14:31:03.956Z,100101.84
2019-03-11T14:36:10.900Z,100084.29
2019-03-11T14:41:17.888Z,100062.02
2019-03-11T14:46:25.183Z,100085.02
2019-03-11T14:51:32.237Z,100078.94
2019-03-11T14:56:39.172Z,100086.09
2019-03-11T15:01:46.217Z,100082.39
2019-03-11T15:06:53.401Z,100100.70
2019-03-11T15:12:00.333Z,100098.20
2019-03-11T15:17:07.329Z,100100.84
2019-03-11T15:22:14.417Z,100094.28
2019-03-11T15:27:21.435Z,100099.25
2019-03-11T15:32:28.351Z,100103.56
2019-03-11T15:37:35.298Z,100095.47
2019-03-11T15:42:42.655Z,100104.87
2019-03-11T15:47:49.701Z,100125.13
2019-03-11T15:52:56.914Z,100100.10
2019-03-11T15:58:04.139Z,100120.62
2019-03-11T16:03:11.091Z,100117.45
2019-03-11T16:08:18.031Z,100131.85
2019-03-11T16:13:25.335Z,100129.65
2019-03-11T16:18:32.410Z,100140.97
2019-03-11T16:23:39.534Z,100157.16
2019-03-11T16:28:48.334Z,100160.97
2019-03-11T16:33:55.496Z,100158.45
2019-03-11T16:39:03.725Z,100160.58
2019-03-11T16:44:12.827Z,100152.98
2019-03-11T16:49:19.752Z,100148.05
2019-03-11T16:54:26.968Z,100141.84
2019-03-11T16:59:33.886Z,100150.61
2019-03-11T17:04:41.055Z,100151.20
2019-03-11T17:09:48.546Z,100166.60
2019-03-11T17:14:55.836Z,100166.60
2019-03-11T17:20:03.092Z,100183.60
2019-03-11T17:25:11.072Z,100206.28
2019-03-11T17:30:18.246Z,100216.89
2019-03-11T17:35:25.343Z,100214.54
2019-03-11T17:40:32.581Z,100206.97
2019-03-11T17:45:39.497Z,100210.50
2019-03-11T17:50:47.848Z,100207.84
2019-03-11T17:55:54.850Z,100216.30
2019-03-11T18:01:02.429Z,100221.09
2019-03-11T18:06:19.797Z,100221.22
2019-03-11T18:11:26.727Z,100219.95
2019-03-11T18:16:33.660Z,100239.14
2019-03-11T18:21:40.669Z,100239.14
2019-03-11T18:26:47.710Z,100240.95
2019-03-11T18:32:01.819Z,100245.03
2019-03-11T18:37:03.431Z,100249.16
2019-03-11T18:42:11.562Z,100249.16
2019-03-11T18:47:18.506Z,100239.96
2019-03-11T18:52:25.519Z,100243.20
2019-03-11T18:57:32.472Z,100251.62
2019-03-11T19:02:39.584Z,100263.47
2019-03-11T19:07:46.821Z,100258.52
2019-03-11T19:12:53.865Z,100264.66
2019-03-11T19:18:00.943Z,100278.53
2019-03-11T19:23:08.146Z,100278.14
2019-03-11T19:28:16.158Z,100278.14
2019-03-11T19:33:23.154Z,100306.52
2019-03-11T19:38:30.067Z,100301.94
2019-03-11T19:43:37.112Z,100323.56
2019-03-11T19:48:44.156Z,100341.44
2019-03-11T19:53:51.065Z,100346.95
2019-03-11T19:58:59.686Z,100360.78
2019-03-11T20:04:06.992Z,100374.94
2019-03-11T20:09:14.504Z,100383.72
2019-03-11T20:14:21.744Z,100396.09
2019-03-11T20:19:28.763Z,100400.99
2019-03-11T20:24:35.777Z,100391.99
2019-03-11T20:29:42.878Z,100395.61
2019-03-11T20:34:50.164Z,100418.67
2019-03-11T20:39:57.553Z,100416.59
2019-03-11T20:45:05.162Z,100427.54
2019-03-11T20:50:12.909Z,100440.98
2019-03-11T20:55:20.353Z,100443.63
2019-03-11T21:00:27.408Z,100450.44
2019-03-11T21:05:35.616Z,100463.25
2019-03-11T21:10:43.080Z,100468.95
2019-03-11T21:15:49.969Z,100481.41
2019-03-11T21:21:04.674Z,100502.74
2019-03-11T21:26:05.942Z,100502.74
2019-03-11T21:31:13.024Z,100518.08
2019-03-11T21:36:20.021Z,100528.19
2019-03-11T21:41:26.974Z,100539.64
2019-03-11T21:46:33.921Z,100539.64
2019-03-11T21:51:40.909Z,100551.04
2019-03-11T21:56:47.842Z,100567.13
2019-03-11T22:01:55.113Z,100569.20
2019-03-11T22:07:02.429Z,100587.20
2019-03-11T22:12:10.742Z,100595.39
2019-03-11T22:17:20.896Z,100607.48
2019-03-11T22:22:27.871Z,100621.83
2019-03-11T22:27:34.814Z,100635.00
2019-03-11T22:32:41.885Z,100638.28
2019-03-11T22:37:49.195Z,100635.62
2019-03-11T22:42:57.348Z,100653.15
2019-03-11T22:48:04.393Z,100660.23
2019-03-11T22:53:11.324Z,100687.58
2019-03-11T22:58:18.250Z,100692.50
2019-03-11T23:03:26.162Z,100704.68
2019-03-11T23:08:33.237Z,100709.50
2019-03-11T23:13:40.590Z,100737.48
2019-03-11T23:18:47.565Z,100754.53
2019-03-11T23:23:54.506Z,100763.25
2019-03-11T23:29:01.604Z,100766.61
2019-03-11T23:34:08.572Z,100766.61
2019-03-11T23:39:15.495Z,100770.02
2019-03-11T23:44:22.439Z,100775.55
2019-03-11T23:49:29.479Z,100786.39
2019-03-11T23:54:36.389Z,100786.27
2019-03-11T23:59:43.309Z,100803.28
